createdAt,value
2018-04-28T00:01:09.532Z,5.83
2018-04-28T00:03:39.021Z,4.47
2018-04-28T00:06:08.504Z,4.97
2018-04-28T00:08:40.725Z,4.50
2018-04-28T00:11:10.478Z,5.37
2018-04-28T00:13:40.141Z,4.00
2018-04-28T00:16:10.429Z,5.30
2018-04-28T00:19:06.320Z,4.47
2018-04-28T00:21:42.417Z,4.87
2018-04-28T00:24:14.948Z,5.20
2018-04-28T00:26:45.664Z,4.80
2018-04-28T00:29:27.153Z,4.33
2018-04-28T00:31:57.073Z,4.73
2018-04-28T00:34:29.827Z,5.70
2018-04-28T00:37:17.389Z,5.37
2018-04-28T00:39:51.351Z,5.20
2018-04-28T00:42:36.658Z,5.97
2018-04-28T00:45:11.624Z,5.10
2018-04-28T00:47:41.985Z,5.30
2018-04-28T00:50:14.025Z,4.10
2018-04-28T00:52:43.495Z,5.67
2018-04-28T00:55:33.864Z,5.67
2018-04-28T00:58:10.474Z,4.60
2018-04-28T01:00:48.135Z,4.23
2018-04-28T01:03:18.678Z,4.67
2018-04-28T01:05:50.417Z,4.37
2018-04-28T01:08:25.252Z,3.70
2018-04-28T01:11:12.994Z,3.60
2018-04-28T01:13:47.188Z,4.23
2018-04-28T01:16:18.250Z,5.03
2018-04-28T01:18:58.265Z,4.57
2018-04-28T01:21:30.138Z,4.73
2018-04-28T01:24:00.452Z,5.27
2018-04-28T01:26:51.517Z,5.53
2018-04-28T01:29:24.780Z,4.87
2018-04-28T01:31:59.955Z,5.13
2018-04-28T01:34:30.548Z,5.50
2018-04-28T01:37:20.495Z,4.70
2018-04-28T01:39:52.166Z,4.50
2018-04-28T01:42:32.460Z,4.37
2018-04-28T01:45:10.186Z,3.67
2018-04-28T01:47:41.467Z,4.43
2018-04-28T01:50:12.570Z,5.37
2018-04-28T01:52:42.972Z,6.90
2018-04-28T01:55:34.149Z,7.33
2018-04-28T01:58:11.089Z,7.13
2018-04-28T02:00:59.282Z,7.73
2018-04-28T02:03:47.952Z,7.20
2018-04-28T02:06:40.682Z,4.73
2018-04-28T02:09:10.259Z,5.10
2018-04-28T02:12:09.076Z,6.10
2018-04-28T02:15:01.781Z,4.83
2018-04-28T02:17:38.235Z,6.03
2018-04-28T02:20:20.091Z,8.33
2018-04-28T02:22:58.152Z,13.20
2018-04-28T02:25:39.211Z,10.47
2018-04-28T02:28:31.185Z,9.13
2018-04-28T02:34:25.385Z,7.60
2018-04-28T02:37:06.976Z,9.70
2018-04-28T02:42:50.495Z,8.30
2018-04-28T02:45:52.513Z,7.93
2018-04-28T02:48:47.596Z,6.33
2018-04-28T02:51:39.655Z,8.07
2018-04-28T02:54:13.075Z,7.30
2018-04-28T02:56:50.599Z,10.57
2018-04-28T02:59:39.990Z,6.40
2018-04-28T03:02:24.452Z,7.70
2018-04-28T03:04:58.630Z,6.03
2018-04-28T03:07:58.260Z,5.33
2018-04-28T03:10:38.840Z,4.90
2018-04-28T03:16:23.950Z,4.87
2018-04-28T03:18:56.448Z,4.93
2018-04-28T03:21:26.813Z,5.70
2018-04-28T03:27:09.112Z,5.80
2018-04-28T03:29:51.474Z,6.10
2018-04-28T03:32:44.183Z,5.63
2018-04-28T03:35:19.761Z,6.10
2018-04-28T03:38:02.489Z,6.60
2018-04-28T03:40:34.918Z,6.20
2018-04-28T03:43:36.036Z,6.00
2018-04-28T03:46:11.044Z,5.47
2018-04-28T03:48:40.548Z,6.60
2018-04-28T03:51:20.317Z,5.87
2018-04-28T03:53:51.786Z,6.27
2018-04-28T03:56:36.073Z,6.80
2018-04-28T03:59:16.810Z,6.57
2018-04-28T04:01:57.361Z,6.33
2018-04-28T04:04:30.720Z,6.70
2018-04-28T04:07:20.150Z,6.40
2018-04-28T04:13:13.905Z,7.67
2018-04-28T04:16:04.516Z,7.40
2018-04-28T04:18:43.564Z,8.27
2018-04-28T04:21:22.701Z,9.50
2018-04-28T04:24:00.953Z,9.37
2018-04-28T04:26:51.299Z,8.60
2018-04-28T04:29:21.828Z,10.70
2018-04-28T04:35:07.632Z,9.33
2018-04-28T04:37:48.465Z,8.80
2018-04-28T04:40:38.570Z,9.57
2018-04-28T04:43:17.524Z,11.80
2018-04-28T04:45:55.217Z,11.13
2018-04-28T04:48:33.582Z,10.63
2018-04-28T04:51:15.839Z,11.47
2018-04-28T04:53:59.042Z,11.07
2018-04-28T04:56:44.636Z,11.80
2018-04-28T04:59:38.537Z,12.40
2018-04-28T05:02:19.096Z,12.40
2018-04-28T05:05:02.019Z,11.20
2018-04-28T05:07:51.445Z,14.63
2018-04-28T05:10:42.709Z,18.90
2018-04-28T05:13:28.548Z,16.47
2018-04-28T05:16:15.250Z,12.40
2018-04-28T05:19:04.328Z,15.37
2018-04-28T05:21:45.428Z,16.80
2018-04-28T05:24:25.948Z,16.57
2018-04-28T05:27:15.769Z,17.50
2018-04-28T05:29:57.448Z,16.80
2018-04-28T05:32:44.110Z,16.57
2018-04-28T05:35:34.561Z,15.20
2018-04-28T05:41:32.442Z,15.70
2018-04-28T05:44:26.838Z,15.63
2018-04-28T05:47:12.947Z,15.53
2018-04-28T05:49:53.660Z,16.87
2018-04-28T05:52:54.348Z,16.13
2018-04-28T05:55:51.063Z,17.60
2018-04-28T05:58:32.450Z,18.93
2018-04-28T06:01:25.317Z,20.17
2018-04-28T06:04:15.280Z,19.50
2018-04-28T06:06:51.116Z,17.63
2018-04-28T06:09:54.303Z,15.77
2018-04-28T06:15:57.847Z,15.77
2018-04-28T06:18:38.422Z,16.57
2018-04-28T06:21:07.882Z,19.60
2018-04-28T06:23:37.178Z,18.40
2018-04-28T06:26:06.776Z,17.10
2018-04-28T06:28:36.400Z,19.63
2018-04-28T06:31:05.806Z,17.83
2018-04-28T06:33:36.038Z,17.03
2018-04-28T06:36:05.904Z,18.60
2018-04-28T06:38:35.712Z,17.10
2018-04-28T06:41:05.958Z,18.47
2018-04-28T06:43:35.640Z,17.00
2018-04-28T06:46:05.069Z,16.20
2018-04-28T06:48:34.670Z,18.97
2018-04-28T06:51:04.119Z,16.80
2018-04-28T06:53:33.938Z,17.50
2018-04-28T06:56:03.383Z,18.93
2018-04-28T06:58:33.412Z,18.33
2018-04-28T07:01:02.904Z,17.57
2018-04-28T07:03:32.826Z,16.83
2018-04-28T07:06:02.271Z,16.47
2018-04-28T07:08:34.324Z,20.40
2018-04-28T07:11:04.166Z,17.90
2018-04-28T07:13:34.033Z,17.77
2018-04-28T07:16:05.174Z,19.10
2018-04-28T07:18:34.616Z,21.60
2018-04-28T07:21:04.287Z,20.30
2018-04-28T07:23:34.130Z,18.63
2018-04-28T07:26:03.421Z,20.60
2018-04-28T07:28:32.870Z,20.77
2018-04-28T07:31:05.503Z,21.67
2018-04-28T07:33:34.990Z,19.47
2018-04-28T07:36:05.309Z,18.62
2018-04-28T07:38:34.994Z,20.90
2018-04-28T07:41:04.422Z,18.73
2018-04-28T07:43:34.453Z,22.03
2018-04-28T07:46:03.943Z,21.07
2018-04-28T07:48:33.599Z,23.27
2018-04-28T07:51:03.205Z,20.00
2018-04-28T07:53:32.444Z,23.15
2018-04-28T07:56:01.515Z,17.20
2018-04-28T07:58:30.657Z,21.23
2018-04-28T08:01:00.110Z,17.07
2018-04-28T08:03:29.661Z,19.40
2018-04-28T08:05:58.969Z,17.27
2018-04-28T08:08:28.443Z,17.70
2018-04-28T08:10:57.956Z,18.97
2018-04-28T08:13:27.708Z,17.23
2018-04-28T08:15:57.346Z,18.50
2018-04-28T08:18:27.057Z,17.40
2018-04-28T08:20:56.759Z,17.27
2018-04-28T08:23:26.465Z,17.10
2018-04-28T08:25:55.990Z,16.70
2018-04-28T08:28:25.391Z,18.57
2018-04-28T08:30:54.909Z,20.80
2018-04-28T08:33:24.408Z,19.57
2018-04-28T08:35:55.339Z,22.37
2018-04-28T08:38:24.677Z,24.43
2018-04-28T08:40:54.155Z,22.00
2018-04-28T08:43:23.888Z,23.10
2018-04-28T08:45:53.141Z,22.47
2018-04-28T08:48:22.874Z,21.70
2018-04-28T08:50:51.974Z,21.97
2018-04-28T08:53:21.424Z,21.98
2018-04-28T08:55:50.729Z,21.07
2018-04-28T08:58:20.082Z,18.62
2018-04-28T09:01:05.121Z,17.50
2018-04-28T09:03:34.410Z,19.00
2018-04-28T09:06:03.742Z,19.23
2018-04-28T09:08:33.843Z,20.20
2018-04-28T09:11:03.313Z,21.27
2018-04-28T09:13:32.854Z,23.87
2018-04-28T09:16:03.405Z,24.08
2018-04-28T09:18:32.757Z,25.95
2018-04-28T09:21:01.878Z,19.85
2018-04-28T09:23:30.948Z,19.17
2018-04-28T09:26:00.290Z,18.37
2018-04-28T09:28:29.574Z,23.70
2018-04-28T09:30:58.892Z,23.60
2018-04-28T09:33:28.186Z,22.73
2018-04-28T09:35:57.463Z,25.85
2018-04-28T09:38:27.769Z,19.30
2018-04-28T09:40:57.244Z,21.35
2018-04-28T09:43:26.389Z,22.70
2018-04-28T09:45:55.942Z,19.05
2018-04-28T09:48:25.090Z,19.00
2018-04-28T09:50:54.196Z,20.55
2018-04-28T09:53:23.840Z,18.37
2018-04-28T09:55:52.898Z,19.65
2018-04-28T09:58:23.053Z,20.30
2018-04-28T10:00:52.305Z,22.77
2018-04-28T10:03:22.730Z,26.98
2018-04-28T10:05:52.323Z,26.23
2018-04-28T10:08:21.746Z,26.52
2018-04-28T10:10:51.082Z,29.17
2018-04-28T10:13:20.376Z,27.55
2018-04-28T10:15:49.737Z,26.83
2018-04-28T10:18:19.032Z,31.05
2018-04-28T10:20:48.320Z,25.95
2018-04-28T10:23:17.556Z,27.60
2018-04-28T10:25:46.820Z,27.77
2018-04-28T10:28:16.161Z,24.87
2018-04-28T10:30:45.482Z,28.65
2018-04-28T10:33:14.636Z,21.75
2018-04-28T10:35:44.164Z,21.58
2018-04-28T10:38:13.598Z,22.85
2018-04-28T10:40:44.364Z,23.70
2018-04-28T10:43:13.652Z,22.47
2018-04-28T10:45:42.997Z,23.83
2018-04-28T10:48:12.467Z,20.73
2018-04-28T10:50:42.610Z,20.83
2018-04-28T10:53:11.906Z,19.70
2018-04-28T10:55:41.185Z,24.80
2018-04-28T10:58:10.462Z,23.67
2018-04-28T11:00:39.769Z,26.87
2018-04-28T11:03:09.000Z,19.57
2018-04-28T11:05:38.469Z,22.33
2018-04-28T11:08:08.078Z,21.13
2018-04-28T11:10:37.397Z,23.87
2018-04-28T11:13:06.908Z,24.30
2018-04-28T11:15:36.210Z,27.33
2018-04-28T11:18:05.496Z,27.50
2018-04-28T11:20:34.767Z,22.35
2018-04-28T11:23:04.123Z,25.23
2018-04-28T11:25:33.465Z,25.67
2018-04-28T11:28:02.904Z,25.37
2018-04-28T11:30:32.172Z,19.20
2018-04-28T11:33:01.585Z,22.90
2018-04-28T11:35:30.583Z,20.33
2018-04-28T11:37:59.697Z,21.60
2018-04-28T11:40:28.968Z,26.80
2018-04-28T11:42:58.318Z,19.20
2018-04-28T11:45:27.584Z,20.90
2018-04-28T11:47:56.863Z,20.70
2018-04-28T11:50:26.485Z,23.33
2018-04-28T11:52:55.734Z,25.25
2018-04-28T11:55:24.785Z,24.85
2018-04-28T11:57:53.869Z,25.85
2018-04-28T12:00:22.965Z,27.23
2018-04-28T12:02:52.104Z,25.55
2018-04-28T12:05:21.152Z,20.17
2018-04-28T12:07:50.264Z,22.02
2018-04-28T12:10:19.764Z,21.87
2018-04-28T12:12:48.860Z,24.30
2018-04-28T12:15:18.150Z,27.87
2018-04-28T12:17:48.880Z,27.25
2018-04-28T12:20:18.585Z,23.98
2018-04-28T12:22:47.697Z,26.92
2018-04-28T12:25:16.782Z,22.83
2018-04-28T12:27:47.523Z,28.27
2018-04-28T12:30:16.612Z,28.65
2018-04-28T12:32:45.794Z,28.60
2018-04-28T12:35:15.005Z,26.15
2018-04-28T12:37:45.259Z,27.10
2018-04-28T12:40:15.048Z,29.20
2018-04-28T12:42:46.166Z,28.70
2018-04-28T12:45:15.459Z,24.30
2018-04-28T12:47:44.774Z,23.20
2018-04-28T12:50:13.886Z,22.20
2018-04-28T12:52:43.323Z,24.57
2018-04-28T12:55:12.887Z,24.23
2018-04-28T12:57:42.377Z,21.80
2018-04-28T13:00:11.498Z,23.00
2018-04-28T13:02:40.542Z,24.60
2018-04-28T13:05:09.853Z,22.37
2018-04-28T13:07:39.178Z,21.15
2018-04-28T13:10:09.485Z,21.47
2018-04-28T13:12:38.810Z,21.40
2018-04-28T13:15:08.129Z,26.00
2018-04-28T13:17:37.454Z,23.13
2018-04-28T13:20:06.712Z,27.73
2018-04-28T13:22:36.030Z,25.83
2018-04-28T13:25:05.351Z,21.40
2018-04-28T13:27:34.577Z,24.33
2018-04-28T13:30:03.873Z,26.23
2018-04-28T13:32:32.976Z,25.73
2018-04-28T13:35:02.315Z,25.17
2018-04-28T13:37:31.380Z,24.90
2018-04-28T13:40:00.769Z,24.90
2018-04-28T13:42:30.488Z,26.67
2018-04-28T13:45:00.600Z,26.30
2018-04-28T13:47:29.696Z,20.60
2018-04-28T13:49:58.883Z,22.43
2018-04-28T13:52:28.414Z,21.53
2018-04-28T13:54:57.886Z,20.23
2018-04-28T13:57:27.255Z,23.33
2018-04-28T13:59:56.827Z,22.10
2018-04-28T14:02:26.106Z,21.80
2018-04-28T14:04:55.454Z,27.30
2018-04-28T14:07:24.494Z,21.03
2018-04-28T14:09:53.668Z,24.03
2018-04-28T14:12:22.904Z,21.00
2018-04-28T14:14:52.297Z,21.20
2018-04-28T14:17:21.809Z,20.43
2018-04-28T14:19:51.311Z,18.73
2018-04-28T14:22:20.403Z,19.90
2018-04-28T14:24:49.717Z,19.63
2018-04-28T14:27:18.982Z,19.93
2018-04-28T14:29:48.333Z,18.47
2018-04-28T14:32:17.404Z,18.93
2018-04-28T14:34:46.722Z,19.57
2018-04-28T14:37:15.982Z,19.50
2018-04-28T14:39:45.103Z,19.30
2018-04-28T14:42:14.414Z,17.57
2018-04-28T14:44:43.455Z,18.63
2018-04-28T14:47:12.857Z,18.20
2018-04-28T14:49:42.071Z,18.37
2018-04-28T14:52:11.366Z,18.17
2018-04-28T14:54:40.674Z,18.70
2018-04-28T14:57:10.004Z,18.50
2018-04-28T14:59:39.495Z,16.53
2018-04-28T15:02:08.579Z,18.83
2018-04-28T15:04:39.531Z,17.93
2018-04-28T15:07:09.461Z,16.30
2018-04-28T15:09:39.244Z,18.43
2018-04-28T15:12:09.457Z,16.30
2018-04-28T15:14:39.817Z,15.23
2018-04-28T15:17:09.942Z,18.27
2018-04-28T15:19:39.182Z,15.80
2018-04-28T15:22:08.394Z,18.43
2018-04-28T15:24:37.724Z,16.90
2018-04-28T15:27:07.248Z,14.97
2018-04-28T15:29:36.976Z,18.20
2018-04-28T15:32:06.005Z,17.40
2018-04-28T15:34:35.272Z,15.97
2018-04-28T15:37:04.407Z,15.47
2018-04-28T15:39:34.541Z,15.90
2018-04-28T15:42:03.828Z,17.23
2018-04-28T15:44:33.113Z,16.73
2018-04-28T15:47:03.442Z,16.23
2018-04-28T15:49:33.574Z,17.00
2018-04-28T15:52:02.890Z,17.00
2018-04-28T15:54:32.206Z,21.00
2018-04-28T15:57:01.475Z,16.87
2018-04-28T15:59:30.539Z,17.70
2018-04-28T16:01:59.862Z,16.83
2018-04-28T16:04:29.253Z,17.67
2018-04-28T16:06:58.771Z,15.70
2018-04-28T16:09:28.894Z,17.10
2018-04-28T16:11:57.999Z,18.83
2018-04-28T16:14:27.232Z,16.93
2018-04-28T16:16:56.580Z,17.30
2018-04-28T16:19:25.872Z,17.23
2018-04-28T16:21:55.150Z,18.07
2018-04-28T16:24:24.254Z,19.00
2018-04-28T16:26:53.337Z,18.77
2018-04-28T16:29:22.633Z,18.87
2018-04-28T16:31:51.949Z,16.90
2018-04-28T16:34:21.264Z,18.27
2018-04-28T16:36:51.641Z,17.70
2018-04-28T16:39:21.194Z,18.17
2018-04-28T16:41:51.902Z,16.70
2018-04-28T16:44:21.222Z,15.47
2018-04-28T16:46:50.588Z,16.47
2018-04-28T16:49:19.921Z,15.10
2018-04-28T16:51:49.444Z,15.10
2018-04-28T16:54:18.833Z,15.70
2018-04-28T16:56:48.201Z,14.10
2018-04-28T16:59:17.812Z,13.27
2018-04-28T17:01:47.149Z,12.47
2018-04-28T17:04:16.419Z,13.00
2018-04-28T17:06:45.752Z,13.50
2018-04-28T17:09:15.088Z,14.70
2018-04-28T17:11:44.333Z,13.23
2018-04-28T17:14:13.605Z,11.93
2018-04-28T17:16:42.936Z,12.90
2018-04-28T17:19:12.049Z,10.97
2018-04-28T17:21:41.563Z,10.83
2018-04-28T17:24:10.837Z,9.93
2018-04-28T17:26:39.942Z,10.43
2018-04-28T17:29:09.216Z,10.40
2018-04-28T17:31:38.774Z,10.07
2018-04-28T17:34:07.799Z,9.13
2018-04-28T17:36:37.774Z,8.93
2018-04-28T17:39:07.130Z,7.50
2018-04-28T17:41:36.325Z,9.13
2018-04-28T17:44:05.480Z,9.10
2018-04-28T17:46:34.714Z,8.43
2018-04-28T17:49:05.275Z,8.20
2018-04-28T17:51:34.751Z,8.43
2018-04-28T17:54:03.969Z,7.80
2018-04-28T17:56:33.983Z,8.40
2018-04-28T17:59:04.187Z,7.00
2018-04-28T18:01:33.660Z,7.90
2018-04-28T18:04:03.022Z,8.30
2018-04-28T18:06:32.257Z,7.70
2018-04-28T18:09:01.625Z,7.00
2018-04-28T18:11:31.057Z,7.07
2018-04-28T18:14:00.595Z,6.73
2018-04-28T18:16:29.771Z,6.60
2018-04-28T18:18:58.970Z,7.00
2018-04-28T18:21:28.409Z,6.80
2018-04-28T18:23:58.400Z,6.93
2018-04-28T18:26:27.855Z,7.00
2018-04-28T18:28:57.090Z,5.43
2018-04-28T18:31:26.205Z,5.40
2018-04-28T18:33:55.603Z,5.87
2018-04-28T18:36:24.695Z,6.20
2018-04-28T18:38:54.050Z,6.73
2018-04-28T18:41:23.609Z,6.40
2018-04-28T18:43:53.687Z,5.20
2018-04-28T18:46:22.783Z,5.80
2018-04-28T18:48:52.207Z,6.20
2018-04-28T18:51:21.588Z,5.80
2018-04-28T18:53:51.428Z,4.60
2018-04-28T18:56:20.714Z,4.70
2018-04-28T18:58:50.613Z,6.07
2018-04-28T19:01:20.002Z,4.70
2018-04-28T19:03:50.245Z,4.83
2018-04-28T19:06:19.493Z,5.73
2018-04-28T19:08:49.609Z,6.40
2018-04-28T19:11:19.542Z,4.70
2018-04-28T19:13:49.132Z,5.30
2018-04-28T19:16:18.396Z,5.17
2018-04-28T19:18:47.695Z,4.70
2018-04-28T19:21:16.795Z,5.43
2018-04-28T19:23:45.911Z,5.57
2018-04-28T19:26:15.229Z,5.30
2018-04-28T19:28:44.675Z,5.43
2018-04-28T19:31:14.280Z,6.07
2018-04-28T19:33:43.499Z,4.73
2018-04-28T19:36:12.795Z,5.20
2018-04-28T19:38:42.311Z,4.87
2018-04-28T19:41:11.693Z,4.40
2018-04-28T19:43:41.218Z,4.10
2018-04-28T19:46:10.272Z,4.77
2018-04-28T19:48:39.387Z,4.40
2018-04-28T19:51:10.962Z,4.30
2018-04-28T19:53:40.563Z,4.67
2018-04-28T19:56:11.082Z,4.73
2018-04-28T19:58:40.546Z,4.03
2018-04-28T20:01:09.879Z,3.53
2018-04-28T20:03:39.203Z,3.60
2018-04-28T20:06:08.572Z,3.93
2018-04-28T20:08:37.870Z,3.40
2018-04-28T20:11:07.027Z,2.60
2018-04-28T20:13:36.101Z,3.53
2018-04-28T20:16:05.218Z,4.90
2018-04-28T20:18:34.520Z,4.40
2018-04-28T20:21:03.921Z,3.50
2018-04-28T20:23:44.453Z,3.10
2018-04-28T20:26:14.597Z,6.40
2018-04-28T20:28:44.173Z,5.70
2018-04-28T20:31:13.655Z,5.30
2018-04-28T20:33:42.981Z,5.53
2018-04-28T20:36:12.114Z,5.20
2018-04-28T20:38:42.809Z,4.90
2018-04-28T20:41:12.401Z,2.93
2018-04-28T20:43:41.480Z,2.70
2018-04-28T20:46:11.626Z,3.43
2018-04-28T20:48:41.343Z,8.20
2018-04-28T20:51:12.108Z,3.47
2018-04-28T20:53:41.430Z,4.70
2018-04-28T20:56:10.798Z,8.60
2018-04-28T20:58:40.241Z,3.70
2018-04-28T21:01:09.536Z,3.47
2018-04-28T21:03:38.722Z,4.10
2018-04-28T21:06:08.043Z,4.07
2018-04-28T21:08:37.737Z,2.83
2018-04-28T21:11:07.260Z,4.40
2018-04-28T21:13:36.405Z,3.97
2018-04-28T21:16:05.802Z,2.73
2018-04-28T21:18:35.818Z,3.40
2018-04-28T21:21:05.300Z,8.20
2018-04-28T21:23:34.569Z,3.63
2018-04-28T21:26:04.067Z,2.97
2018-04-28T21:28:33.389Z,3.57
2018-04-28T21:31:02.698Z,3.53
2018-04-28T21:33:32.026Z,2.80
2018-04-28T21:36:01.255Z,3.90
2018-04-28T21:38:30.473Z,3.67
2018-04-28T21:40:59.952Z,3.20
2018-04-28T21:43:29.914Z,3.43
2018-04-28T21:45:59.446Z,4.33
2018-04-28T21:48:28.525Z,3.50
2018-04-28T21:50:58.997Z,4.20
2018-04-28T21:53:29.362Z,3.90
2018-04-28T21:55:58.644Z,4.33
2018-04-28T21:58:28.146Z,4.50
2018-04-28T22:00:57.667Z,4.00
2018-04-28T22:03:26.997Z,4.30
2018-04-28T22:05:56.070Z,4.13
2018-04-28T22:08:25.329Z,3.20
2018-04-28T22:10:55.126Z,3.40
2018-04-28T22:13:24.871Z,3.10
2018-04-28T22:15:54.701Z,2.97
2018-04-28T22:18:24.900Z,3.67
2018-04-28T22:20:54.199Z,3.33
2018-04-28T22:23:23.521Z,3.90
2018-04-28T22:25:53.332Z,3.53
2018-04-28T22:28:22.951Z,3.60
2018-04-28T22:30:52.434Z,4.60
2018-04-28T22:33:21.756Z,4.70
2018-04-28T22:35:51.051Z,3.47
2018-04-28T22:38:20.122Z,3.20
2018-04-28T22:40:49.222Z,3.80
2018-04-28T22:43:19.147Z,3.97
2018-04-28T22:45:48.612Z,5.10
2018-04-28T22:48:17.963Z,4.50
2018-04-28T22:50:47.265Z,3.53
2018-04-28T22:53:16.610Z,4.00
2018-04-28T22:55:45.820Z,3.20
2018-04-28T22:58:15.785Z,4.40
2018-04-28T23:00:45.034Z,3.50
2018-04-28T23:03:14.177Z,3.47
2018-04-28T23:05:43.412Z,2.80
2018-04-28T23:08:12.672Z,3.47
2018-04-28T23:10:41.765Z,2.10
2018-04-28T23:13:11.387Z,2.93
2018-04-28T23:15:41.182Z,2.30
2018-04-28T23:18:10.490Z,2.17
2018-04-28T23:20:39.532Z,2.50
2018-04-28T23:23:08.852Z,2.37
2018-04-28T23:25:38.326Z,2.70
2018-04-28T23:28:07.533Z,2.80
2018-04-28T23:30:36.948Z,2.47
2018-04-28T23:33:08.094Z,2.37
2018-04-28T23:35:37.441Z,2.10
2018-04-28T23:38:06.681Z,2.17
2018-04-28T23:40:36.017Z,2.47
2018-04-28T23:43:05.503Z,1.97
2018-04-28T23:45:34.955Z,2.47
2018-04-28T23:48:04.292Z,2.37
2018-04-28T23:50:33.633Z,2.33
2018-04-28T23:53:02.855Z,2.00
2018-04-28T23:55:33.026Z,2.10
2018-04-28T23:58:02.262Z,2.80
